Time;durP1;ratioP1;P1;durP2;ratioP2;P2;SDS_P1;SDS_P2;PMS_P1;PMS_P2;Temp;Humidity;BMP_temperature;BMP_pressure;BME280_temperature;BME280_humidity;BME280_pressure;Samples;Min_cycle;Max_cycle;Signal;HPM_P1;HPM_P2
2021/11/27 00:02:16;;;;;;;20.15;9.10;;;;;;;;;;5074524;28;20048;-65
2021/11/27 00:04:43;;;;;;;19.52;8.80;;;;;;;;;;5074427;28;20048;-65
2021/11/27 00:07:10;;;;;;;18.95;9.20;;;;;;;;;;5075243;28;20048;-63
2021/11/27 00:09:37;;;;;;;21.58;9.90;;;;;;;;;;5074502;28;20052;-65
2021/11/27 00:12:07;;;;;;;18.02;8.98;;;;;;;;;;5074602;28;20044;-65
2021/11/27 00:14:35;;;;;;;19.77;8.57;;;;;;;;;;5074646;28;20055;-64
2021/11/27 00:17:03;;;;;;;17.15;8.00;;;;;;;;;;5074670;28;20071;-65
2021/11/27 00:19:30;;;;;;;21.58;9.23;;;;;;;;;;5075066;28;20055;-65
2021/11/27 00:21:57;;;;;;;19.23;9.10;;;;;;;;;;5074535;28;20053;-65
2021/11/27 00:24:24;;;;;;;16.10;8.00;;;;;;;;;;5075490;28;20394;-62
2021/11/27 00:26:52;;;;;;;18.67;8.75;;;;;;;;;;5074700;28;20049;-64
2021/11/27 00:29:22;;;;;;;17.33;8.10;;;;;;;;;;5074258;28;20067;-64
2021/11/27 00:31:50;;;;;;;15.93;7.93;;;;;;;;;;5074253;28;20091;-64
2021/11/27 00:34:17;;;;;;;17.58;8.38;;;;;;;;;;5074386;28;20168;-64
2021/11/27 00:36:45;;;;;;;15.35;8.00;;;;;;;;;;5074313;28;20048;-64
2021/11/27 00:39:12;;;;;;;15.63;7.32;;;;;;;;;;5074760;28;20486;-64
2021/11/27 00:41:39;;;;;;;16.15;7.25;;;;;;;;;;5074235;28;20102;-64
2021/11/27 00:44:06;;;;;;;15.18;6.60;;;;;;;;;;5074103;28;20092;-63
2021/11/27 00:46:35;;;;;;;15.32;7.43;;;;;;;;;;5073972;28;20106;-64
2021/11/27 00:49:03;;;;;;;15.48;7.07;;;;;;;;;;5074297;28;20048;-63
2021/11/27 00:51:30;;;;;;;15.02;6.95;;;;;;;;;;5071808;28;20048;-63
2021/11/27 00:53:57;;;;;;;14.63;7.80;;;;;;;;;;5073871;28;20412;-64
2021/11/27 00:56:25;;;;;;;12.25;6.97;;;;;;;;;;5073563;28;20048;-63
2021/11/27 00:58:52;;;;;;;16.88;7.70;;;;;;;;;;5073610;28;20053;-63
2021/11/27 01:01:22;;;;;;;12.40;6.35;;;;;;;;;;5073341;28;20052;-63
2021/11/27 01:03:51;;;;;;;14.03;6.93;;;;;;;;;;5073525;28;20499;-63
2021/11/27 01:06:22;;;;;;;14.10;6.32;;;;;;;;;;5073256;28;20281;-63
2021/11/27 01:08:49;;;;;;;14.60;6.80;;;;;;;;;;5073377;28;20098;-64
2021/11/27 01:11:20;;;;;;;13.40;6.57;;;;;;;;;;5073332;28;20143;-63
2021/11/27 01:13:48;;;;;;;15.82;6.72;;;;;;;;;;5073590;28;20097;-64
2021/11/27 01:16:17;;;;;;;15.05;6.55;;;;;;;;;;5073506;28;20497;-64
2021/11/27 01:18:44;;;;;;;15.25;6.40;;;;;;;;;;5073620;28;20052;-64
2021/11/27 01:21:15;;;;;;;13.10;6.35;;;;;;;;;;5073344;28;20242;-62
2021/11/27 01:23:42;;;;;;;;;;;;;;;;;;5073568;28;20040;-62
2021/11/27 01:26:10;;;;;;;13.70;5.55;;;;;;;;;;5072866;28;19927;-60
2021/11/27 01:28:37;;;;;;;13.55;6.47;;;;;;;;;;5072780;28;20102;-61
2021/11/27 01:31:04;;;;;;;13.38;5.88;;;;;;;;;;5073004;28;20050;-60
2021/11/27 01:33:32;;;;;;;11.57;5.38;;;;;;;;;;5073171;28;20103;-61
2021/11/27 01:36:01;;;;;;;12.73;6.03;;;;;;;;;;5073257;28;20052;-61
2021/11/27 01:38:30;;;;;;;12.95;6.05;;;;;;;;;;5072980;28;20054;-61
2021/11/27 01:40:57;;;;;;;11.32;5.57;;;;;;;;;;5072970;28;20516;-61
2021/11/27 01:43:24;;;;;;;11.95;5.68;;;;;;;;;;5072703;28;20269;-60
2021/11/27 01:45:53;;;;;;;12.43;6.28;;;;;;;;;;5072738;28;20056;-60
2021/11/27 01:48:21;;;;;;;11.27;5.85;;;;;;;;;;5072440;28;20048;-59
2021/11/27 01:50:51;;;;;;;10.30;5.30;;;;;;;;;;5072561;28;20051;-60
2021/11/27 01:53:21;;;;;;;13.15;5.70;;;;;;;;;;5072313;28;20048;-60
2021/11/27 01:55:50;;;;;;;10.00;5.40;;;;;;;;;;5072242;28;20056;-60
2021/11/27 01:58:17;;;;;;;12.43;5.55;;;;;;;;;;5072300;28;20474;-62
2021/11/27 02:00:47;;;;;;;11.52;5.75;;;;;;;;;;5072615;28;20048;-62
2021/11/27 02:03:14;;;;;;;10.73;5.35;;;;;;;;;;5072418;28;20549;-61
2021/11/27 02:05:41;;;;;;;13.10;5.60;;;;;;;;;;5072450;28;20052;-62
2021/11/27 02:08:08;;;;;;;10.75;5.22;;;;;;;;;;5072213;28;20135;-60
2021/11/27 02:10:36;;;;;;;11.45;5.65;;;;;;;;;;5072517;28;20056;-61
2021/11/27 02:13:05;;;;;;;11.52;5.47;;;;;;;;;;5072257;28;20238;-59
2021/11/27 02:15:32;;;;;;;11.85;5.82;;;;;;;;;;5072380;28;20141;-61
2021/11/27 02:18:00;;;;;;;9.43;5.47;;;;;;;;;;5071991;28;20420;-60
2021/11/27 02:20:28;;;;;;;9.23;4.78;;;;;;;;;;5072766;28;20049;-60
2021/11/27 02:22:56;;;;;;;9.65;5.13;;;;;;;;;;5071941;28;20058;-61
2021/11/27 02:25:23;;;;;;;9.75;5.10;;;;;;;;;;5072315;28;20056;-60
2021/11/27 02:27:53;;;;;;;10.80;5.20;;;;;;;;;;5072043;28;20401;-62
2021/11/27 02:30:22;;;;;;;10.30;5.10;;;;;;;;;;5072313;28;20139;-60
2021/11/27 02:32:49;;;;;;;10.13;5.05;;;;;;;;;;5072187;28;20053;-60
2021/11/27 02:35:17;;;;;;;7.45;4.00;;;;;;;;;;5071969;28;20048;-62
2021/11/27 02:37:45;;;;;;;7.43;4.50;;;;;;;;;;5072056;28;20052;-61
2021/11/27 02:40:14;;;;;;;9.50;4.22;;;;;;;;;;5072223;28;20055;-62
2021/11/27 02:42:42;;;;;;;7.70;4.13;;;;;;;;;;5071952;28;20060;-62
2021/11/27 02:45:10;;;;;;;9.13;4.20;;;;;;;;;;5072437;28;20122;-61
2021/11/27 02:47:37;;;;;;;7.53;3.97;;;;;;;;;;5071867;28;20044;-59
2021/11/27 02:50:07;;;;;;;7.68;3.63;;;;;;;;;;5072151;28;20510;-59
2021/11/27 02:52:34;;;;;;;9.15;4.03;;;;;;;;;;5072233;28;20044;-61
2021/11/27 02:55:01;;;;;;;8.30;3.85;;;;;;;;;;5072080;28;20055;-61
2021/11/27 02:57:31;;;;;;;8.82;3.83;;;;;;;;;;5071611;28;20095;-61
2021/11/27 02:59:59;;;;;;;6.38;3.67;;;;;;;;;;5072052;28;20056;-59
2021/11/27 03:02:26;;;;;;;7.07;3.50;;;;;;;;;;5071594;28;20106;-60
2021/11/27 03:04:54;;;;;;;7.68;3.67;;;;;;;;;;5071956;28;20049;-61
2021/11/27 03:07:21;;;;;;;11.63;4.50;;;;;;;;;;5071764;28;20079;-62
2021/11/27 03:09:48;;;;;;;9.45;4.03;;;;;;;;;;5071627;28;20254;-61
2021/11/27 03:12:15;;;;;;;7.32;3.55;;;;;;;;;;5071770;28;20468;-59
2021/11/27 03:14:43;;;;;;;6.45;3.58;;;;;;;;;;5072475;28;20481;-61
2021/11/27 03:17:10;;;;;;;8.90;3.95;;;;;;;;;;5075746;28;20056;-59
2021/11/27 03:19:39;;;;;;;8.73;4.93;;;;;;;;;;5075595;28;20056;-60
2021/11/27 03:22:07;;;;;;;9.15;4.32;;;;;;;;;;5075624;28;20127;-61
2021/11/27 03:24:35;;;;;;;7.85;3.65;;;;;;;;;;5075429;28;20060;-62
2021/11/27 03:27:02;;;;;;;7.90;4.20;;;;;;;;;;5075208;28;20044;-62
2021/11/27 03:29:30;;;;;;;7.78;3.83;;;;;;;;;;5074997;28;20059;-61
2021/11/27 03:31:59;;;;;;;9.10;4.50;;;;;;;;;;5075362;28;20485;-61
2021/11/27 03:34:26;;;;;;;9.77;4.47;;;;;;;;;;5075081;28;20049;-60
2021/11/27 03:36:53;;;;;;;8.52;4.50;;;;;;;;;;5075163;28;20049;-62
2021/11/27 03:39:20;;;;;;;8.93;4.25;;;;;;;;;;5074612;28;20045;-60
2021/11/27 03:41:47;;;;;;;8.38;4.20;;;;;;;;;;5075343;28;20045;-60
2021/11/27 03:44:14;;;;;;;6.38;3.47;;;;;;;;;;5074791;28;20045;-60
2021/11/27 03:46:42;;;;;;;7.15;3.72;;;;;;;;;;5075056;28;20059;-60
2021/11/27 03:49:11;;;;;;;8.35;4.25;;;;;;;;;;5074472;28;20052;-61
2021/11/27 03:51:38;;;;;;;9.13;4.30;;;;;;;;;;5075225;28;20094;-61
2021/11/27 03:54:06;;;;;;;9.35;3.90;;;;;;;;;;5074604;28;20051;-61
2021/11/27 03:56:33;;;;;;;7.70;4.05;;;;;;;;;;5074562;28;20251;-61
2021/11/27 03:59:04;;;;;;;7.50;3.65;;;;;;;;;;5074306;28;20045;-62
2021/11/27 04:01:31;;;;;;;8.15;4.20;;;;;;;;;;5074695;28;20060;-61
2021/11/27 04:04:01;;;;;;;8.50;4.50;;;;;;;;;;5074662;28;20044;-61
2021/11/27 04:06:30;;;;;;;9.45;4.45;;;;;;;;;;5075148;28;20512;-62
2021/11/27 04:08:59;;;;;;;8.98;4.90;;;;;;;;;;5074178;28;20587;-61
2021/11/27 04:11:27;;;;;;;8.57;4.22;;;;;;;;;;5074613;28;20145;-60
2021/11/27 04:13:54;;;;;;;10.82;4.43;;;;;;;;;;5074258;28;20048;-62
2021/11/27 04:16:21;;;;;;;9.65;4.28;;;;;;;;;;5074531;28;20052;-61
2021/11/27 04:18:48;;;;;;;11.13;4.60;;;;;;;;;;5074587;28;20048;-62
2021/11/27 04:21:17;;;;;;;9.65;4.25;;;;;;;;;;5074356;28;20053;-62
2021/11/27 04:23:47;;;;;;;8.35;4.88;;;;;;;;;;5074875;28;20056;-61
2021/11/27 04:26:13;;;;;;;7.65;4.22;;;;;;;;;;5074465;28;20057;-62
2021/11/27 04:28:41;;;;;;;8.95;4.35;;;;;;;;;;5074121;28;20516;-62
2021/11/27 04:31:09;;;;;;;9.73;4.32;;;;;;;;;;5074198;28;20048;-60
2021/11/27 04:33:37;;;;;;;11.02;5.13;;;;;;;;;;5074191;28;20044;-63
2021/11/27 04:36:08;;;;;;;9.27;4.38;;;;;;;;;;5074317;28;20059;-62
2021/11/27 04:38:34;;;;;;;;;;;;;;;;;;5074412;28;20472;-61
2021/11/27 04:41:03;;;;;;;9.15;4.43;;;;;;;;;;5073882;28;20269;-61
2021/11/27 04:43:30;;;;;;;8.35;3.90;;;;;;;;;;5073789;28;20052;-61
2021/11/27 04:45:57;;;;;;;8.50;3.75;;;;;;;;;;5073960;28;20057;-62
2021/11/27 04:48:24;;;;;;;8.52;4.40;;;;;;;;;;5073513;28;20057;-63
2021/11/27 04:50:52;;;;;;;10.48;4.45;;;;;;;;;;5073579;28;20051;-60
2021/11/27 04:53:19;;;;;;;8.15;4.18;;;;;;;;;;5073588;28;20052;-60
2021/11/27 04:55:46;;;;;;;7.82;4.63;;;;;;;;;;5073728;28;20048;-60
2021/11/27 04:58:15;;;;;;;7.85;4.45;;;;;;;;;;5073560;28;20060;-61
2021/11/27 05:00:45;;;;;;;9.05;4.80;;;;;;;;;;5073748;28;20055;-62
2021/11/27 05:03:12;;;;;;;10.23;4.75;;;;;;;;;;5070051;22;20051;-80
2021/11/27 05:05:39;;;;;;;10.18;4.57;;;;;;;;;;5039283;28;20049;-80
2021/11/27 05:08:06;;;;;;;8.93;4.57;;;;;;;;;;5037712;28;20084;-80
2021/11/27 05:10:33;;;;;;;8.90;4.43;;;;;;;;;;5036875;28;20045;-80
2021/11/27 05:13:00;;;;;;;12.27;5.85;;;;;;;;;;5037065;28;20099;-80
2021/11/27 05:15:28;;;;;;;9.63;4.97;;;;;;;;;;5036507;28;20045;-80
2021/11/27 05:17:55;;;;;;;9.73;5.07;;;;;;;;;;5034054;28;20041;-80
2021/11/27 05:20:22;;;;;;;9.85;5.40;;;;;;;;;;5036742;28;20528;-81
2021/11/27 05:22:50;;;;;;;11.50;5.50;;;;;;;;;;5036603;28;20480;-81
2021/11/27 05:25:16;;;;;;;10.95;5.18;;;;;;;;;;5037881;28;20053;-79
2021/11/27 05:27:43;;;;;;;11.68;5.72;;;;;;;;;;5036148;28;20170;-81
2021/11/27 05:30:12;;;;;;;11.52;5.47;;;;;;;;;;5035017;28;20394;-80
2021/11/27 05:33:05;;;;;;;10.05;5.20;;;;;;;;;;5037267;28;20123;-80
2021/11/27 05:35:31;;;;;;;11.68;5.63;;;;;;;;;;5034920;28;20053;-78
2021/11/27 05:37:58;;;;;;;12.65;5.88;;;;;;;;;;5032993;28;20099;-77
2021/11/27 05:40:25;;;;;;;11.73;5.85;;;;;;;;;;5034140;28;20050;-77
2021/11/27 05:42:52;;;;;;;10.77;5.43;;;;;;;;;;5036600;28;20061;-81
2021/11/27 05:45:19;;;;;;;11.75;5.68;;;;;;;;;;5036801;28;20057;-78
2021/11/27 05:47:47;;;;;;;12.18;5.25;;;;;;;;;;5035143;28;20049;-79
2021/11/27 05:50:14;;;;;;;11.60;5.47;;;;;;;;;;5033215;28;20050;-78
2021/11/27 05:52:41;;;;;;;11.35;5.55;;;;;;;;;;5034151;28;20366;-78
2021/11/27 05:55:08;;;;;;;10.65;5.38;;;;;;;;;;5032715;28;20050;-79
2021/11/27 05:57:35;;;;;;;12.93;5.95;;;;;;;;;;5035293;28;20111;-78
2021/11/27 06:00:04;;;;;;;12.35;5.32;;;;;;;;;;5035367;28;20049;-78
2021/11/27 06:02:31;;;;;;;12.48;5.05;;;;;;;;;;5032546;28;20052;-78
2021/11/27 06:04:59;;;;;;;10.57;5.35;;;;;;;;;;5032393;28;20053;-78
2021/11/27 06:07:25;;;;;;;11.23;5.60;;;;;;;;;;5032736;28;20065;-78
2021/11/27 06:09:52;;;;;;;12.32;6.00;;;;;;;;;;5035693;28;20049;-78
2021/11/27 06:12:19;;;;;;;11.60;4.85;;;;;;;;;;5033005;28;20107;-78
2021/11/27 06:14:46;;;;;;;9.32;4.82;;;;;;;;;;5032980;28;20072;-78
2021/11/27 06:17:15;;;;;;;10.25;4.95;;;;;;;;;;5033033;28;20076;-78
2021/11/27 06:19:43;;;;;;;11.00;5.50;;;;;;;;;;5032862;28;20471;-78
2021/11/27 06:22:11;;;;;;;10.82;5.40;;;;;;;;;;5033120;28;20452;-78
2021/11/27 06:24:41;;;;;;;9.93;4.85;;;;;;;;;;5033027;28;20065;-78
2021/11/27 06:27:08;;;;;;;10.73;5.15;;;;;;;;;;5033399;28;20045;-79
2021/11/27 06:29:35;;;;;;;10.80;5.10;;;;;;;;;;5035707;28;20076;-79
2021/11/27 06:32:06;;;;;;;10.68;5.50;;;;;;;;;;5035409;28;20053;-78
2021/11/27 06:34:33;;;;;;;9.75;5.03;;;;;;;;;;5033438;28;20052;-80
2021/11/27 06:36:59;;;;;;;10.18;5.00;;;;;;;;;;5032370;28;20099;-78
2021/11/27 06:39:28;;;;;;;11.30;5.97;;;;;;;;;;5034193;28;20103;-77
2021/11/27 06:41:56;;;;;;;9.60;5.13;;;;;;;;;;5032715;28;20128;-78
2021/11/27 06:44:24;;;;;;;10.07;5.20;;;;;;;;;;5033165;28;20045;-79
2021/11/27 06:46:51;;;;;;;10.50;5.63;;;;;;;;;;5035416;28;20061;-79
2021/11/27 06:49:18;;;;;;;11.95;5.50;;;;;;;;;;5036195;28;20041;-79
2021/11/27 06:51:45;;;;;;;9.68;5.28;;;;;;;;;;5058400;28;20140;-79
2021/11/27 06:54:12;;;;;;;9.50;4.75;;;;;;;;;;5061246;28;20083;-79
2021/11/27 06:56:40;;;;;;;9.88;5.43;;;;;;;;;;5060898;28;20056;-78
2021/11/27 06:59:07;;;;;;;11.30;5.88;;;;;;;;;;5046536;28;20114;-79
2021/11/27 07:01:34;;;;;;;10.63;5.20;;;;;;;;;;5039965;28;20045;-79
2021/11/27 07:04:01;;;;;;;9.98;5.40;;;;;;;;;;5039243;28;20050;-79
2021/11/27 07:06:28;;;;;;;8.38;4.45;;;;;;;;;;5038875;28;20385;-79
2021/11/27 07:08:54;;;;;;;13.30;6.05;;;;;;;;;;5039196;28;20052;-79
2021/11/27 07:11:21;;;;;;;11.48;6.15;;;;;;;;;;5039594;28;20084;-79
2021/11/27 07:13:50;;;;;;;12.43;6.03;;;;;;;;;;5038528;28;20108;-79
2021/11/27 07:16:16;;;;;;;11.45;5.88;;;;;;;;;;5039086;28;20451;-79
2021/11/27 07:18:43;;;;;;;13.48;6.20;;;;;;;;;;5037834;28;20046;-79
2021/11/27 07:21:10;;;;;;;13.43;6.53;;;;;;;;;;5037789;28;20077;-79
2021/11/27 07:23:37;;;;;;;10.07;5.80;;;;;;;;;;5040301;28;20045;-79
2021/11/27 07:26:04;;;;;;;10.57;5.63;;;;;;;;;;5039858;28;20069;-79
2021/11/27 07:28:31;;;;;;;13.52;6.90;;;;;;;;;;5037597;28;20053;-79
2021/11/27 07:30:59;;;;;;;10.10;5.10;;;;;;;;;;5038567;28;20049;-79
2021/11/27 07:33:26;;;;;;;10.20;5.50;;;;;;;;;;5042755;28;20079;-79
2021/11/27 07:35:52;;;;;;;12.13;6.20;;;;;;;;;;5040744;28;20060;-79
2021/11/27 07:38:19;;;;;;;11.95;5.35;;;;;;;;;;5044006;28;20140;-79
2021/11/27 07:40:47;;;;;;;11.80;5.82;;;;;;;;;;5042757;28;20099;-79
2021/11/27 07:43:14;;;;;;;10.15;5.03;;;;;;;;;;5040996;28;20054;-79
2021/11/27 07:45:40;;;;;;;10.82;5.35;;;;;;;;;;5042339;28;20056;-79
2021/11/27 07:48:09;;;;;;;12.52;5.90;;;;;;;;;;5039691;28;20133;-78
2021/11/27 07:50:36;;;;;;;11.82;5.32;;;;;;;;;;5038605;28;20053;-79
2021/11/27 07:53:06;;;;;;;11.85;5.00;;;;;;;;;;5040860;28;20095;-79
2021/11/27 07:55:33;;;;;;;9.32;5.18;;;;;;;;;;5040394;28;20049;-79
2021/11/27 07:58:00;;;;;;;13.27;5.45;;;;;;;;;;5038184;28;20052;-78
2021/11/27 08:00:27;;;;;;;13.45;6.28;;;;;;;;;;5038515;28;20626;-78
2021/11/27 08:02:53;;;;;;;10.02;5.07;;;;;;;;;;5036484;28;20451;-79
2021/11/27 08:05:22;;;;;;;11.32;5.97;;;;;;;;;;5036463;28;20582;-79
2021/11/27 08:07:49;;;;;;;10.43;6.07;;;;;;;;;;5035265;28;20053;-79
2021/11/27 08:10:17;;;;;;;17.40;6.97;;;;;;;;;;5039060;28;20053;-79
2021/11/27 08:12:44;;;;;;;12.18;6.47;;;;;;;;;;5040344;28;20508;-79
2021/11/27 08:15:14;;;;;;;15.38;8.52;;;;;;;;;;5035941;28;20046;-79
2021/11/27 08:17:44;;;;;;;13.45;6.72;;;;;;;;;;5040346;28;20520;-80
2021/11/27 08:20:12;;;;;;;14.85;6.93;;;;;;;;;;5039451;28;20049;-79
2021/11/27 08:22:42;;;;;;;11.90;6.15;;;;;;;;;;5038669;28;20052;-79
2021/11/27 08:25:10;;;;;;;13.07;6.07;;;;;;;;;;5038194;28;20137;-80
2021/11/27 08:27:37;;;;;;;11.07;6.10;;;;;;;;;;5039027;28;20068;-80
2021/11/27 08:30:09;;;;;;;13.65;6.45;;;;;;;;;;5044246;28;20045;-79
2021/11/27 08:32:39;;;;;;;12.75;6.40;;;;;;;;;;5047217;28;20079;-79
2021/11/27 08:35:07;;;;;;;12.68;6.10;;;;;;;;;;5039762;28;20057;-81
2021/11/27 08:37:34;;;;;;;12.77;6.72;;;;;;;;;;5038262;28;20049;-79
2021/11/27 08:40:02;;;;;;;11.02;5.82;;;;;;;;;;5037101;28;20050;-79
2021/11/27 08:42:30;;;;;;;14.30;8.20;;;;;;;;;;5036814;28;20053;-79
2021/11/27 08:44:58;;;;;;;18.42;9.68;;;;;;;;;;5037320;28;20087;-79
2021/11/27 08:47:24;;;;;;;19.23;9.55;;;;;;;;;;5036057;28;20053;-79
2021/11/27 08:49:52;;;;;;;14.90;7.20;;;;;;;;;;5038578;28;20049;-80
2021/11/27 08:52:19;;;;;;;14.18;7.68;;;;;;;;;;5036578;28;20397;-79
2021/11/27 08:54:46;;;;;;;15.18;6.93;;;;;;;;;;5039315;28;20049;-80
2021/11/27 08:57:18;;;;;;;31.95;17.13;;;;;;;;;;5040580;28;20099;-80
2021/11/27 08:59:45;;;;;;;35.85;18.38;;;;;;;;;;5042739;28;20045;-79
2021/11/27 09:02:12;;;;;;;15.60;8.00;;;;;;;;;;5038934;28;20041;-79
2021/11/27 09:04:39;;;;;;;13.15;7.25;;;;;;;;;;5036129;28;20554;-79
2021/11/27 09:07:06;;;;;;;12.98;6.97;;;;;;;;;;5035669;28;20045;-79
2021/11/27 09:09:34;;;;;;;15.70;7.10;;;;;;;;;;5035323;28;20053;-79
2021/11/27 09:12:03;;;;;;;16.40;8.25;;;;;;;;;;5035242;28;20496;-80
2021/11/27 09:14:31;;;;;;;12.82;7.20;;;;;;;;;;5035252;28;20107;-80
2021/11/27 09:17:00;;;;;;;14.85;7.75;;;;;;;;;;5036454;28;20542;-80
2021/11/27 09:19:27;;;;;;;11.30;6.22;;;;;;;;;;5037136;28;20488;-80
2021/11/27 09:21:56;;;;;;;12.20;6.53;;;;;;;;;;5036799;28;20053;-80
2021/11/27 09:24:24;;;;;;;13.75;6.93;;;;;;;;;;5039925;28;20124;-79
2021/11/27 09:26:51;;;;;;;12.68;6.47;;;;;;;;;;5040831;28;20045;-79
2021/11/27 09:29:19;;;;;;;13.73;6.72;;;;;;;;;;5039668;28;20049;-80
2021/11/27 09:31:48;;;;;;;11.68;6.25;;;;;;;;;;5040009;28;20053;-80
2021/11/27 09:34:16;;;;;;;13.73;6.00;;;;;;;;;;5041338;28;20051;-80
2021/11/27 09:36:44;;;;;;;11.43;6.03;;;;;;;;;;5042258;28;20041;-81
2021/11/27 09:39:13;;;;;;;12.98;6.53;;;;;;;;;;5041157;28;20049;-80
2021/11/27 09:41:42;;;;;;;13.95;6.47;;;;;;;;;;5039882;28;20136;-81
2021/11/27 09:44:10;;;;;;;12.85;6.97;;;;;;;;;;5037947;28;20045;-79
2021/11/27 09:46:39;;;;;;;10.07;5.70;;;;;;;;;;5041758;28;20076;-80
2021/11/27 09:49:09;;;;;;;12.35;6.97;;;;;;;;;;5050876;28;20117;-78
2021/11/27 09:51:38;;;;;;;14.13;6.67;;;;;;;;;;5056184;28;20037;-80
2021/11/27 09:54:08;;;;;;;18.52;8.43;;;;;;;;;;5055284;28;20053;-80
2021/11/27 09:56:36;;;;;;;24.13;11.73;;;;;;;;;;5053192;28;20136;-80
2021/11/27 09:59:03;;;;;;;13.50;7.10;;;;;;;;;;5040399;28;20452;-80
2021/11/27 10:01:35;;;;;;;14.15;7.03;;;;;;;;;;5041587;28;20560;-81
2021/11/27 10:04:04;;;;;;;13.20;7.53;;;;;;;;;;5036153;28;20501;-81
2021/11/27 10:06:36;;;;;;;12.32;6.63;;;;;;;;;;5041291;28;20049;-80
2021/11/27 10:09:06;;;;;;;15.23;7.25;;;;;;;;;;5037728;28;20068;-80
2021/11/27 10:11:32;;;;;;;13.02;7.60;;;;;;;;;;5038996;28;20053;-80
2021/11/27 10:13:59;;;;;;;12.90;7.00;;;;;;;;;;5039212;28;20052;-80
2021/11/27 10:16:28;;;;;;;36.10;10.35;;;;;;;;;;5042510;28;20049;-79
2021/11/27 10:19:06;;;;;;;12.30;5.88;;;;;;;;;;5041322;28;20080;-79
2021/11/27 10:21:36;;;;;;;11.30;5.30;;;;;;;;;;5040972;28;20168;-81
2021/11/27 10:24:18;;;;;;;10.20;6.32;;;;;;;;;;5038111;28;20091;-80
2021/11/27 10:26:46;;;;;;;12.68;6.18;;;;;;;;;;5034526;28;20559;-79
2021/11/27 10:29:18;;;;;;;10.00;5.85;;;;;;;;;;5036417;28;20059;-80
2021/11/27 10:31:48;;;;;;;11.82;5.43;;;;;;;;;;5036380;28;20475;-80
2021/11/27 10:34:20;;;;;;;12.27;6.90;;;;;;;;;;5035986;28;20080;-80
2021/11/27 10:36:49;;;;;;;11.25;6.00;;;;;;;;;;5036425;28;20053;-80
2021/11/27 10:39:16;;;;;;;11.07;5.95;;;;;;;;;;5032894;28;20461;-78
2021/11/27 10:41:57;;;;;;;11.43;6.50;;;;;;;;;;5032332;28;20054;-79
2021/11/27 10:44:30;;;;;;;12.93;7.07;;;;;;;;;;5033156;28;20099;-79
2021/11/27 10:47:10;;;;;;;12.43;6.18;;;;;;;;;;5032303;28;20389;-79
2021/11/27 10:49:37;;;;;;;13.27;6.70;;;;;;;;;;5032364;28;20065;-79
2021/11/27 10:52:10;;;;;;;23.15;11.38;;;;;;;;;;5032614;28;20096;-78
2021/11/27 10:54:44;;;;;;;16.75;7.38;;;;;;;;;;5032456;28;20111;-78
2021/11/27 10:57:28;;;;;;;11.35;5.47;;;;;;;;;;5032329;28;20056;-78
2021/11/27 10:59:55;;;;;;;10.85;6.32;;;;;;;;;;5022992;28;20049;-79
2021/11/27 11:02:25;;;;;;;13.15;6.35;;;;;;;;;;5024552;28;20045;-78
2021/11/27 11:05:02;;;;;;;14.27;6.85;;;;;;;;;;5022703;28;20046;-78
2021/11/27 11:07:31;;;;;;;22.42;10.98;;;;;;;;;;5030143;28;20049;-78
2021/11/27 11:10:06;;;;;;;13.45;6.35;;;;;;;;;;5018223;28;20052;-78
2021/11/27 11:12:34;;;;;;;14.35;6.65;;;;;;;;;;5023626;28;20049;-78
2021/11/27 11:15:13;;;;;;;11.05;5.38;;;;;;;;;;5022883;28;20045;-79
2021/11/27 11:17:41;;;;;;;13.55;6.43;;;;;;;;;;5030952;28;20080;-79
2021/11/27 11:20:25;;;;;;;10.82;5.60;;;;;;;;;;5033147;28;20045;-79
2021/11/27 11:23:11;;;;;;;10.95;4.75;;;;;;;;;;5032608;28;20420;-79
2021/11/27 11:25:52;;;;;;;8.73;4.85;;;;;;;;;;5030908;28;20057;-80
2021/11/27 11:28:19;;;;;;;8.13;4.75;;;;;;;;;;5024641;28;20052;-81
2021/11/27 11:30:48;;;;;;;10.90;5.18;;;;;;;;;;5020420;28;20050;-80
2021/11/27 11:33:17;;;;;;;12.38;6.28;;;;;;;;;;5058121;23;20439;-59
2021/11/27 11:35:44;;;;;;;13.18;7.68;;;;;;;;;;5032201;28;20045;-61
2021/11/27 11:38:14;;;;;;;11.27;5.63;;;;;;;;;;5034798;28;20088;-61
2021/11/27 11:40:43;;;;;;;12.18;5.38;;;;;;;;;;5020640;28;20052;-62
2021/11/27 11:43:11;;;;;;;12.35;5.38;;;;;;;;;;5018005;28;20041;-61
2021/11/27 11:45:38;;;;;;;9.45;4.57;;;;;;;;;;5018440;28;20129;-60
2021/11/27 11:48:07;;;;;;;9.32;4.85;;;;;;;;;;5018735;28;20050;-62
2021/11/27 11:50:38;;;;;;;10.25;4.72;;;;;;;;;;5019580;28;20479;-64
2021/11/27 11:53:09;;;;;;;8.05;4.70;;;;;;;;;;5019532;28;20049;-65
2021/11/27 11:55:52;;;;;;;10.55;5.20;;;;;;;;;;5017716;28;20583;-64
2021/11/27 11:58:27;;;;;;;10.20;4.78;;;;;;;;;;5019247;28;20053;-61
2021/11/27 12:01:00;;;;;;;9.63;4.43;;;;;;;;;;5018629;28;20133;-65
2021/11/27 12:03:31;;;;;;;9.48;4.60;;;;;;;;;;5019622;28;20414;-65
2021/11/27 12:06:04;;;;;;;10.35;5.82;;;;;;;;;;5018383;28;20042;-63
2021/11/27 12:09:07;;;;;;;19.08;9.07;;;;;;;;;;5017677;28;20574;-66
2021/11/27 12:12:20;;;;;;;12.15;5.38;;;;;;;;;;4947084;28;20194;-61
2021/11/27 12:15:00;;;;;;;18.60;7.43;;;;;;;;;;4948130;29;20058;-61
2021/11/27 12:17:28;;;;;;;11.32;5.43;;;;;;;;;;4999799;28;20058;-60
2021/11/27 12:19:57;;;;;;;12.23;5.53;;;;;;;;;;5016634;28;20077;-60
2021/11/27 12:22:49;;;;;;;7.60;4.07;;;;;;;;;;5018266;28;20297;-59
2021/11/27 12:25:26;;;;;;;10.00;4.57;;;;;;;;;;5016189;28;20069;-60
2021/11/27 12:28:24;;;;;;;11.38;5.60;;;;;;;;;;5017547;28;20111;-61
2021/11/27 12:31:03;;;;;;;9.35;5.32;;;;;;;;;;5017466;28;20054;-61
2021/11/27 12:34:01;;;;;;;34.60;15.05;;;;;;;;;;5019116;28;20058;-62
2021/11/27 12:36:52;;;;;;;10.82;6.07;;;;;;;;;;4938669;29;20047;-60
2021/11/27 12:39:36;;;;;;;18.95;8.73;;;;;;;;;;5011370;28;20076;-61
2021/11/27 12:42:34;;;;;;;9.82;5.65;;;;;;;;;;5016772;28;20061;-61
2021/11/27 12:45:07;;;;;;;10.63;5.13;;;;;;;;;;5016335;28;20136;-61
2021/11/27 12:47:44;;;;;;;13.73;6.38;;;;;;;;;;5016241;28;20100;-61
2021/11/27 12:50:21;;;;;;;17.08;8.98;;;;;;;;;;5019167;28;20056;-61
2021/11/27 12:52:50;;;;;;;9.05;4.43;;;;;;;;;;5016835;28;20046;-61
2021/11/27 12:55:36;;;;;;;8.82;4.32;;;;;;;;;;5019004;28;20112;-60
2021/11/27 12:58:44;;;;;;;10.70;4.57;;;;;;;;;;5017815;28;20050;-59
2021/11/27 13:01:24;;;;;;;16.58;8.38;;;;;;;;;;5017137;28;20444;-62
2021/11/27 13:03:53;;;;;;;16.38;7.65;;;;;;;;;;5016887;28;20068;-62
2021/11/27 13:06:20;;;;;;;12.63;6.32;;;;;;;;;;5017084;28;20092;-62
2021/11/27 13:08:47;;;;;;;11.98;6.53;;;;;;;;;;5017211;28;20050;-61
2021/11/27 13:11:20;;;;;;;13.40;6.68;;;;;;;;;;5018442;28;20041;-60
2021/11/27 13:13:52;;;;;;;8.40;4.75;;;;;;;;;;5017935;28;20045;-61
2021/11/27 13:16:24;;;;;;;8.45;3.58;;;;;;;;;;5016642;28;20459;-61
2021/11/27 13:18:54;;;;;;;7.03;3.97;;;;;;;;;;5016150;28;20049;-61
2021/11/27 13:21:24;;;;;;;8.38;4.00;;;;;;;;;;5019076;28;20308;-61
2021/11/27 13:23:52;;;;;;;7.85;3.72;;;;;;;;;;5017484;28;20490;-59
2021/11/27 13:26:21;;;;;;;9.02;3.78;;;;;;;;;;5016196;28;20046;-61
2021/11/27 13:28:50;;;;;;;8.77;3.47;;;;;;;;;;5014070;28;20317;-60
2021/11/27 13:31:27;;;;;;;8.45;3.95;;;;;;;;;;5016784;28;20470;-61
2021/11/27 13:33:57;;;;;;;15.73;8.95;;;;;;;;;;5016119;28;20465;-62
2021/11/27 13:36:42;;;;;;;7.68;3.22;;;;;;;;;;5017535;28;20041;-64
2021/11/27 13:39:15;;;;;;;8.55;3.75;;;;;;;;;;5016647;28;20045;-62
2021/11/27 13:41:43;;;;;;;7.38;3.47;;;;;;;;;;5017886;28;20045;-61
2021/11/27 13:44:11;;;;;;;7.28;3.53;;;;;;;;;;5017000;28;20084;-60
2021/11/27 13:46:54;;;;;;;23.23;8.88;;;;;;;;;;5018205;28;20068;-60
2021/11/27 13:49:30;;;;;;;29.55;9.63;;;;;;;;;;5017182;28;20080;-61
2021/11/27 13:51:57;;;;;;;10.13;4.78;;;;;;;;;;5016493;28;20050;-63
2021/11/27 13:54:24;;;;;;;9.85;3.85;;;;;;;;;;5017509;28;20084;-60
2021/11/27 13:56:52;;;;;;;8.95;4.30;;;;;;;;;;5016279;28;20063;-62
2021/11/27 13:59:27;;;;;;;7.90;3.55;;;;;;;;;;5015661;28;20048;-61
2021/11/27 14:02:03;;;;;;;9.70;5.20;;;;;;;;;;5015973;28;20514;-61
2021/11/27 14:04:31;;;;;;;7.00;3.58;;;;;;;;;;5017029;28;20060;-61
2021/11/27 14:07:00;;;;;;;8.50;3.30;;;;;;;;;;5007523;28;20143;-61
2021/11/27 14:09:48;;;;;;;8.77;3.33;;;;;;;;;;5016327;28;20137;-61
2021/11/27 14:12:39;;;;;;;9.27;4.65;;;;;;;;;;5016847;28;20050;-62
2021/11/27 14:15:07;;;;;;;;;;;;;;;;;;5019731;28;20072;-63
2021/11/27 14:17:36;;;;;;;10.38;4.45;;;;;;;;;;5007240;28;19933;-61
2021/11/27 14:20:18;;;;;;;6.35;2.95;;;;;;;;;;5016126;28;20517;-62
2021/11/27 14:22:57;;;;;;;7.32;3.13;;;;;;;;;;5016106;28;20060;-61
2021/11/27 14:25:27;;;;;;;8.02;3.55;;;;;;;;;;5017081;28;20053;-61
2021/11/27 14:27:58;;;;;;;7.22;3.13;;;;;;;;;;5015981;28;20057;-59
2021/11/27 14:30:27;;;;;;;8.63;3.72;;;;;;;;;;5016488;28;20140;-61
2021/11/27 14:33:15;;;;;;;7.07;3.10;;;;;;;;;;5017004;28;20383;-59
2021/11/27 14:35:42;;;;;;;9.27;4.43;;;;;;;;;;5016127;28;20057;-61
2021/11/27 14:38:09;;;;;;;10.18;4.57;;;;;;;;;;5005885;28;20058;-62
2021/11/27 14:40:57;;;;;;;10.57;4.38;;;;;;;;;;5016630;28;20049;-62
2021/11/27 14:43:24;;;;;;;11.02;4.53;;;;;;;;;;5014885;28;20484;-62
2021/11/27 14:45:51;;;;;;;9.05;3.75;;;;;;;;;;5016755;28;20057;-61
2021/11/27 14:48:36;;;;;;;32.88;11.75;;;;;;;;;;5014195;28;20515;-61
2021/11/27 14:51:05;;;;;;;9.38;5.15;;;;;;;;;;5015524;28;20480;-62
2021/11/27 14:53:37;;;;;;;13.48;6.00;;;;;;;;;;5015163;28;20132;-60